Time;durP1;ratioP1;P1;durP2;ratioP2;P2;SDS_P1;SDS_P2;PMS_P1;PMS_P2;Temp;Humidity;BMP_temperature;BMP_pressure;BME280_temperature;BME280_humidity;BME280_pressure;Samples;Min_cycle;Max_cycle;Signal;HPM_P1;HPM_P2
2021/04/09 00:02:20;;;;;;;9.95;6.17;;;;;;;19.96;33.22;99922.50;1768139;80;21173;-13
2021/04/09 00:04:48;;;;;;;6.30;5.33;;;;;;;19.96;33.32;99927.36;1746655;80;21186;-17
2021/04/09 00:07:17;;;;;;;8.68;5.40;;;;;;;19.95;33.30;99928.30;1715821;81;22210;-14
2021/04/09 00:09:45;;;;;;;8.83;5.70;;;;;;;19.97;33.36;99927.74;1745584;80;21641;-13
2021/04/09 00:12:15;;;;;;;7.40;5.35;;;;;;;19.98;33.35;99932.59;1753992;81;21190;-14
2021/04/09 00:14:44;;;;;;;7.45;5.08;;;;;;;19.98;33.30;99927.25;1750852;80;21142;-13
2021/04/09 00:17:12;;;;;;;5.85;5.05;;;;;;;19.98;33.34;99937.45;1756990;80;21206;-14
2021/04/09 00:19:41;;;;;;;9.13;5.28;;;;;;;19.98;33.31;99938.78;1772324;80;21140;-13
2021/04/09 00:22:08;;;;;;;9.60;5.03;;;;;;;20.00;33.30;99938.20;1759860;80;21204;-13
2021/04/09 00:24:36;;;;;;;7.17;5.20;;;;;;;20.02;33.37;99942.09;1781728;80;21314;-13
2021/04/09 00:27:05;;;;;;;8.43;5.33;;;;;;;20.01;33.28;99943.08;1747867;80;21200;-14
2021/04/09 00:29:32;;;;;;;7.37;4.92;;;;;;;20.02;33.35;99947.44;1750863;80;21703;-16
2021/04/09 00:32:02;;;;;;;6.08;4.70;;;;;;;20.02;33.33;99950.11;1750488;79;21201;-13
2021/04/09 00:34:29;;;;;;;7.75;5.25;;;;;;;20.02;33.29;99959.00;1754731;80;21734;-13
2021/04/09 00:36:58;;;;;;;6.58;5.08;;;;;;;20.03;33.32;99963.37;1750484;80;22405;-16
2021/04/09 00:39:26;;;;;;;10.20;5.12;;;;;;;20.02;33.19;99964.34;1767841;79;21258;-15
2021/04/09 00:41:53;;;;;;;6.75;4.67;;;;;;;20.03;33.32;99963.37;1726831;81;21224;-13
2021/04/09 00:44:21;;;;;;;7.03;5.10;;;;;;;20.02;33.23;99964.34;1758746;80;21276;-13
2021/04/09 00:46:49;;;;;;;7.25;4.85;;;;;;;20.02;33.25;99972.36;1749026;80;21209;-12
2021/04/09 00:49:16;;;;;;;6.28;4.80;;;;;;;20.04;33.19;99973.11;1731568;82;21223;-14
2021/04/09 00:51:44;;;;;;;7.87;4.80;;;;;;;20.04;33.24;99970.44;1743613;81;21233;-13
2021/04/09 00:54:11;;;;;;;7.78;4.67;;;;;;;20.05;33.14;99977.95;1712582;82;22333;-13
2021/04/09 00:56:38;;;;;;;6.72;5.15;;;;;;;20.06;33.14;99976.17;1708605;82;21184;-13
2021/04/09 00:59:06;;;;;;;14.25;4.87;;;;;;;20.06;33.25;99974.83;1738056;82;21228;-13
2021/04/09 01:01:34;;;;;;;23.73;6.78;;;;;;;20.06;33.18;99972.16;1759869;80;21146;-16
2021/04/09 01:04:04;;;;;;;21.62;6.22;;;;;;;20.06;32.57;99973.50;1728997;81;21196;-13
2021/04/09 01:06:31;;;;;;;16.67;6.22;;;;;;;20.04;33.07;99981.13;1763090;81;22181;-16
2021/04/09 01:08:59;;;;;;;15.13;6.37;;;;;;;20.04;32.96;99983.80;1710017;80;21614;-14
2021/04/09 01:11:29;;;;;;;12.40;5.72;;;;;;;20.04;32.92;99980.27;1753808;81;21193;-13
2021/04/09 01:13:57;;;;;;;13.98;6.12;;;;;;;20.04;33.04;99990.47;1740584;80;21709;-13
2021/04/09 01:16:48;;;;;;;11.10;5.53;;;;;;;20.06;33.18;99986.85;1759861;80;21364;-13
2021/04/09 01:19:30;;;;;;;8.23;4.90;;;;;;;20.06;33.17;99984.18;1744513;80;21558;-12
2021/04/09 01:22:03;;;;;;;6.53;4.95;;;;;;;20.06;33.03;99983.69;1750655;81;21193;-16
2021/04/09 01:25:02;;;;;;;7.75;5.47;;;;;;;20.07;32.97;99988.05;1777260;79;21198;-13
2021/04/09 01:27:57;;;;;;;6.90;5.30;;;;;;;20.07;32.97;99989.88;1779044;79;22329;-13
2021/04/09 01:30:56;;;;;;;12.07;5.58;;;;;;;20.06;32.94;99995.71;1784983;79;21197;-15
2021/04/09 01:33:43;;;;;;;8.73;4.87;;;;;;;20.07;32.98;100004.57;1805259;79;21153;-15
2021/04/09 05:07:43;;;;;;;6.85;5.28;;;;;;;19.90;34.42;100243.37;1761514;78;22874;-17
2021/04/09 05:10:12;;;;;;;10.75;4.87;;;;;;;20.00;34.05;100251.19;1724369;82;21196;-15
2021/04/09 05:12:41;;;;;;;7.00;5.20;;;;;;;20.10;33.82;100249.66;1691609;81;22023;-15
2021/04/09 05:15:10;;;;;;;9.35;5.78;;;;;;;20.18;33.74;100254.53;1714548;82;21207;-16
2021/04/09 05:17:38;;;;;;;7.25;5.42;;;;;;;20.22;33.01;100250.70;1702555;83;21180;-18
2021/04/09 05:20:07;;;;;;;6.90;6.05;;;;;;;20.24;32.69;100258.16;1735396;80;21177;-15
2021/04/09 05:22:35;;;;;;;7.95;5.62;;;;;;;20.24;32.21;100262.17;1694527;83;21614;-15
2021/04/09 05:25:05;;;;;;;9.50;6.25;;;;;;;20.23;31.53;100267.13;1731622;80;21765;-16
2021/04/09 05:27:33;;;;;;;8.88;6.12;;;;;;;20.20;31.61;100261.97;1724963;80;21238;-16
2021/04/09 05:30:01;;;;;;;9.83;5.72;;;;;;;20.19;31.58;100269.59;1711345;80;21551;-13
2021/04/09 05:32:28;;;;;;;8.20;6.08;;;;;;;20.16;31.23;100264.47;1691110;83;21223;-13
2021/04/09 05:34:56;;;;;;;8.88;5.95;;;;;;;20.14;31.27;100265.02;1739833;80;21220;-15
2021/04/09 05:37:23;;;;;;;6.80;5.90;;;;;;;20.13;31.21;100272.66;1716762;82;22234;-13
2021/04/09 05:39:51;;;;;;;7.50;6.08;;;;;;;20.09;31.14;100276.47;1723344;80;21223;-16
2021/04/09 05:42:19;;;;;;;7.62;6.40;;;;;;;20.07;31.08;100275.70;1738497;80;21239;-16
2021/04/09 05:44:46;;;;;;;9.95;5.92;;;;;;;20.02;31.01;100276.87;1722756;82;21151;-16
2021/04/09 05:47:14;;;;;;;8.90;6.50;;;;;;;20.02;30.97;100284.87;1732213;80;21143;-16
2021/04/09 05:49:41;;;;;;;9.35;6.45;;;;;;;20.00;30.81;100288.09;1730901;80;21237;-16
2021/04/09 05:52:09;;;;;;;10.85;7.80;;;;;;;19.99;30.85;100287.73;1740147;80;21187;-15
2021/04/09 05:54:39;;;;;;;10.60;7.10;;;;;;;19.98;30.81;100288.67;1695846;81;21143;-17
2021/04/09 05:57:07;;;;;;;9.13;7.85;;;;;;;19.96;30.67;100291.92;1724422;80;21143;-16
2021/04/09 05:59:34;;;;;;;12.15;7.33;;;;;;;19.96;30.44;100294.59;1726678;80;21612;-16
2021/04/09 06:02:03;;;;;;;11.38;7.28;;;;;;;19.96;30.46;100300.42;1729095;82;22636;-18
2021/04/09 06:04:30;;;;;;;11.73;8.30;;;;;;;20.00;30.46;100300.12;1723583;80;21111;-16
2021/04/09 06:06:58;;;;;;;12.47;8.55;;;;;;;20.03;30.68;100299.94;1729767;80;21199;-15
2021/04/09 06:09:26;;;;;;;11.75;8.73;;;;;;;20.08;31.00;100305.48;1723169;80;21207;-15
2021/04/09 06:11:55;;;;;;;11.33;8.65;;;;;;;20.11;30.90;100306.64;1727690;82;21191;-15
2021/04/09 06:14:25;;;;;;;13.83;9.15;;;;;;;20.15;30.82;100313.50;1719851;80;21214;-15
2021/04/09 06:16:54;;;;;;;13.03;9.30;;;;;;;20.17;31.01;100308.91;1702151;81;21198;-15
2021/04/09 06:19:22;;;;;;;18.98;9.28;;;;;;;20.21;31.13;100307.78;1691688;84;21232;-15
2021/04/09 06:21:49;;;;;;;12.55;9.53;;;;;;;20.19;30.30;100309.22;1684117;84;21212;-15
2021/04/09 06:24:18;;;;;;;13.10;9.55;;;;;;;20.09;29.78;100311.20;1688148;84;21203;-17
2021/04/09 06:26:46;;;;;;;22.02;12.50;;;;;;;19.93;28.99;100306.80;1680925;82;21967;-14
2021/04/09 06:29:13;;;;;;;19.70;13.15;;;;;;;19.75;28.92;100315.92;1668620;82;21223;-17
2021/04/09 06:31:41;;;;;;;18.82;12.25;;;;;;;19.61;30.19;100314.05;1669134;83;21231;-16
2021/04/09 06:34:09;;;;;;;17.45;12.07;;;;;;;19.55;31.82;100321.96;1652860;84;21611;-15
2021/04/09 06:36:38;;;;;;;18.35;11.68;;;;;;;19.57;32.67;100322.72;1663316;85;21209;-17
2021/04/09 06:39:06;;;;;;;20.85;11.65;;;;;;;19.66;32.99;100326.16;1662868;84;21206;-18
2021/04/09 06:41:34;;;;;;;24.98;11.65;;;;;;;19.78;33.10;100325.09;1680046;82;21239;-16
2021/04/09 06:44:02;;;;;;;26.73;11.53;;;;;;;19.91;33.18;100326.07;1676089;82;21224;-15
2021/04/09 06:46:29;;;;;;;17.92;10.13;;;;;;;20.03;33.22;100323.12;1686688;82;21237;-15
2021/04/09 06:48:58;;;;;;;13.60;9.98;;;;;;;20.17;33.20;100327.61;1674437;85;21206;-14
2021/04/09 06:51:26;;;;;;;11.25;9.75;;;;;;;20.29;33.20;100329.55;1624043;85;21286;-15
2021/04/09 06:53:54;;;;;;;14.35;10.65;;;;;;;20.40;33.16;100334.21;1687082;84;21180;-14
2021/04/09 06:56:23;;;;;;;17.57;10.53;;;;;;;20.51;33.18;100338.87;1689386;83;21267;-15
2021/04/09 06:58:52;;;;;;;14.38;9.65;;;;;;;20.61;33.21;100336.02;1678465;84;21248;-15
2021/04/09 07:01:20;;;;;;;13.62;9.48;;;;;;;20.71;33.26;100331.84;1704461;81;21192;-15
2021/04/09 07:03:48;;;;;;;11.75;9.23;;;;;;;20.81;33.30;100328.06;1725951;81;21231;-15
2021/04/09 07:06:15;;;;;;;18.52;9.75;;;;;;;20.90;33.32;100335.52;1711821;83;21160;-15
2021/04/09 07:08:43;;;;;;;13.15;9.58;;;;;;;20.98;33.33;100332.36;1695367;83;21701;-15
2021/04/09 07:11:10;;;;;;;11.55;9.18;;;;;;;21.06;33.30;100332.69;1709461;83;21199;-15
2021/04/09 07:13:51;;;;;;;12.58;9.10;;;;;;;21.13;33.31;100334.02;1703691;82;21212;-15
2021/04/09 07:16:20;;;;;;;19.48;9.13;;;;;;;21.21;33.28;100342.87;1682328;83;21246;-15
2021/04/09 07:18:54;;;;;;;12.75;8.58;;;;;;;21.28;32.72;100344.66;1693128;82;21240;-15
2021/04/09 07:21:33;;;;;;;11.43;8.25;;;;;;;21.28;32.58;100346.00;1678670;84;28398;-16
2021/04/09 07:24:18;;;;;;;13.55;8.90;;;;;;;21.26;32.35;100342.08;1686868;82;21190;-16
2021/04/09 07:26:52;;;;;;;17.48;8.60;;;;;;;21.23;31.30;100345.45;1687840;83;21157;-19
2021/04/09 07:29:50;;;;;;;12.60;8.03;;;;;;;21.08;31.56;100338.82;1687917;83;21397;-16
2021/04/09 07:32:29;;;;;;;11.18;7.67;;;;;;;21.00;32.05;100346.48;1680490;83;21217;-16
2021/04/09 07:38:03;;;;;;;10.32;7.60;;;;;;;20.89;31.40;100338.28;1812992;78;23135;-14
2021/04/09 07:40:33;;;;;;;14.53;7.53;;;;;;;20.85;32.00;100341.64;1772244;79;21073;-15
2021/04/09 07:43:05;;;;;;;11.10;7.10;;;;;;;20.91;32.25;100344.39;1738254;80;21646;-15
2021/04/09 07:45:41;;;;;;;11.00;6.92;;;;;;;20.99;32.35;100342.08;1770613;80;21173;-15
2021/04/09 07:48:18;;;;;;;10.35;6.62;;;;;;;21.10;32.38;100350.27;1781631;79;21607;-17
2021/04/09 07:50:54;;;;;;;8.83;6.22;;;;;;;21.23;32.46;100352.13;1774212;79;21187;-16
2021/04/09 07:53:37;;;;;;;18.32;7.08;;;;;;;21.34;32.65;100356.31;1744951;80;21619;-15
2021/04/09 07:56:31;;;;;;;9.15;5.83;;;;;;;21.45;32.72;100356.92;1785271;77;21148;-16
2021/04/09 07:59:07;;;;;;;24.92;13.45;;;;;;;21.55;31.61;100353.19;1773620;79;21137;-16
2021/04/09 08:01:55;;;;;;;25.60;10.85;;;;;;;21.56;29.78;100360.27;1776678;79;21152;-19
2021/04/09 08:04:33;;;;;;;15.65;8.78;;;;;;;21.51;29.93;100352.05;1780797;79;21181;-16
2021/04/09 08:07:33;;;;;;;20.05;9.03;;;;;;;21.50;28.83;100351.69;1781287;79;21117;-17
2021/04/09 08:10:07;;;;;;;16.87;7.83;;;;;;;21.46;29.36;100358.65;1791842;79;21680;-16
2021/04/09 08:12:42;;;;;;;11.78;7.67;;;;;;;21.46;28.95;100359.50;1787619;78;21536;-15
2021/04/09 08:15:26;;;;;;;15.38;7.47;;;;;;;21.46;28.80;100351.47;1778189;79;21641;-16
2021/04/09 08:18:11;;;;;;;10.55;7.28;;;;;;;21.48;29.22;100349.57;1765437;79;21212;-16
2021/04/09 08:20:43;;;;;;;10.68;7.03;;;;;;;21.54;29.78;100352.34;1783724;79;21153;-16
2021/04/09 08:23:16;;;;;;;13.30;6.72;;;;;;;21.63;30.04;100353.53;1773815;79;22284;-16
2021/04/09 08:25:50;;;;;;;12.57;7.07;;;;;;;21.71;29.74;100349.86;1763504;79;21148;-15
2021/04/09 08:28:39;;;;;;;11.90;6.45;;;;;;;21.80;30.04;100345.69;1791043;78;21159;-18
2021/04/09 08:31:48;;;;;;;12.10;5.60;;;;;;;21.87;30.13;100353.22;1760737;79;21211;-16
2021/04/09 08:34:27;;;;;;;9.83;5.72;;;;;;;22.00;30.37;100350.53;1801947;77;22126;-15
2021/04/09 08:37:10;;;;;;;11.35;6.30;;;;;;;22.12;30.10;100348.81;1766570;79;21733;-16
2021/04/09 08:39:45;;;;;;;8.23;5.55;;;;;;;22.21;29.76;100348.19;1782156;79;21176;-17
2021/04/09 08:42:24;;;;;;;11.33;5.45;;;;;;;22.26;30.02;100343.36;1806618;77;21146;-18
2021/04/09 08:44:59;;;;;;;7.83;5.83;;;;;;;22.32;29.73;100342.59;1781155;79;21603;-17
2021/04/09 08:47:28;;;;;;;10.15;5.50;;;;;;;22.36;29.90;100346.29;1780939;79;21115;-15
2021/04/09 08:50:11;;;;;;;11.50;5.62;;;;;;;22.42;29.97;100347.67;1778268;78;21421;-17
2021/04/09 08:52:45;;;;;;;9.10;5.20;;;;;;;22.47;30.29;100344.17;1790535;79;21194;-16
2021/04/09 08:55:16;;;;;;;6.12;4.47;;;;;;;22.53;30.24;100348.27;1777331;79;21221;-16
2021/04/09 08:57:45;;;;;;;7.17;4.65;;;;;;;22.57;30.21;100347.91;1724113;80;21222;-16
2021/04/09 09:00:24;;;;;;;13.70;5.20;;;;;;;22.63;30.37;100347.97;1778481;79;21226;-15
2021/04/09 09:02:56;;;;;;;8.20;4.83;;;;;;;22.66;30.49;100347.73;1781538;77;21185;-15
2021/04/09 09:05:27;;;;;;;7.03;4.92;;;;;;;22.72;30.24;100342.42;1781596;79;21204;-15
2021/04/09 09:08:01;;;;;;;6.10;4.65;;;;;;;22.75;29.70;100347.08;1749819;79;21156;-16
2021/04/09 09:10:34;;;;;;;6.07;5.10;;;;;;;22.76;29.76;100348.80;1776059;79;21667;-16
2021/04/09 09:13:14;;;;;;;9.45;4.72;;;;;;;22.78;30.07;100348.20;1757863;79;21645;-16
2021/04/09 09:15:51;;;;;;;10.30;4.67;;;;;;;22.83;30.49;100350.56;1782662;79;21197;-15
2021/04/09 09:18:25;;;;;;;9.40;4.60;;;;;;;22.90;30.56;100350.48;1795964;78;21155;-19
2021/04/09 09:21:19;;;;;;;26.48;7.22;;;;;;;22.95;28.38;100356.36;1783550;79;21248;-19
2021/04/09 09:24:00;;;;;;;19.92;5.80;;;;;;;22.71;27.03;100350.09;1779720;79;22292;-16
2021/04/09 09:26:42;;;;;;;18.82;5.85;;;;;;;22.48;30.05;100349.05;1791242;79;21556;-16
2021/04/09 09:29:27;;;;;;;22.67;4.58;;;;;;;22.53;31.04;100357.16;1784361;79;26486;-17
2021/04/09 09:32:04;;;;;;;10.13;4.20;;;;;;;22.65;32.02;100361.28;1756863;80;21191;-17
2021/04/09 09:34:41;;;;;;;10.45;4.75;;;;;;;22.76;32.11;100355.98;1781639;79;21186;-16
2021/04/09 09:37:30;;;;;;;10.20;5.78;;;;;;;22.84;32.94;100357.62;1773303;79;21177;-16
2021/04/09 09:40:07;;;;;;;7.90;4.85;;;;;;;22.92;29.77;100353.91;1771247;79;21197;-16
2021/04/09 09:42:41;;;;;;;5.45;3.77;;;;;;;22.92;26.58;100348.53;1771360;79;21376;-15
2021/04/09 09:45:13;;;;;;;6.45;3.08;;;;;;;22.87;24.74;100334.59;1775616;79;21674;-15
2021/04/09 09:47:44;;;;;;;3.40;2.92;;;;;;;22.79;23.50;100353.92;1773140;79;21122;-16
2021/04/09 09:50:23;;;;;;;5.70;3.40;;;;;;;22.67;22.68;100351.29;1756982;79;21212;-18
2021/04/09 09:53:02;;;;;;;3.60;2.77;;;;;;;22.58;22.80;100351.47;1738736;81;21576;-16
2021/04/09 09:55:44;;;;;;;5.72;3.33;;;;;;;22.50;22.79;100352.00;1720039;82;21202;-18
2021/04/09 09:58:27;;;;;;;7.95;3.33;;;;;;;22.46;23.19;100362.59;1719994;82;21231;-16
2021/04/09 10:00:57;;;;;;;4.00;2.90;;;;;;;22.39;22.60;100354.58;1727178;82;21777;-17
2021/04/09 10:03:34;;;;;;;7.15;3.35;;;;;;;22.34;22.38;100352.71;1720267;82;21678;-19
2021/04/09 10:06:14;;;;;;;5.90;3.02;;;;;;;22.33;23.88;100353.70;1726366;82;21171;-17
2021/04/09 10:08:43;;;;;;;3.72;3.40;;;;;;;22.36;25.02;100353.45;1717657;82;21216;-18
2021/04/09 10:11:21;;;;;;;3.70;3.20;;;;;;;22.43;25.11;100359.63;1720001;82;21665;-16
2021/04/09 10:13:50;;;;;;;5.15;3.08;;;;;;;22.48;24.59;100351.27;1729932;80;21567;-18
2021/04/09 10:16:25;;;;;;;3.20;2.90;;;;;;;22.51;24.73;100349.71;1750736;80;21220;-16
2021/04/09 10:19:00;;;;;;;3.70;2.90;;;;;;;22.53;22.94;100355.81;1720315;82;21641;-19
2021/04/09 10:21:31;;;;;;;4.05;2.90;;;;;;;22.45;22.12;100354.16;1706480;82;21269;-18
2021/04/09 10:24:13;;;;;;;3.58;3.02;;;;;;;22.41;23.38;100354.86;1719762;82;21216;-15
2021/04/09 10:26:52;;;;;;;6.67;4.65;;;;;;;22.45;22.88;100347.45;1695427;82;21216;-19
2021/04/09 10:29:36;;;;;;;7.03;3.42;;;;;;;22.45;24.20;100346.12;1719185;81;21196;-15
2021/04/09 10:32:07;;;;;;;6.37;4.10;;;;;;;22.51;25.38;100344.34;1793478;78;21202;-16
2021/04/09 10:34:35;;;;;;;14.65;3.90;;;;;;;22.62;25.89;100346.25;1731153;81;21267;-16
2021/04/09 10:37:07;;;;;;;6.80;4.58;;;;;;;22.73;25.28;100352.17;1773496;79;21652;-17
2021/04/09 10:39:38;;;;;;;7.12;4.40;;;;;;;22.75;24.79;100348.91;1772937;79;21193;-16
2021/04/09 10:42:07;;;;;;;5.47;3.70;;;;;;;22.79;25.43;100352.58;1782295;78;21660;-16
2021/04/09 10:44:34;;;;;;;7.55;3.70;;;;;;;22.85;24.98;100352.64;1763525;79;21144;-16
2021/04/09 10:47:05;;;;;;;10.18;3.55;;;;;;;22.86;24.73;100343.61;1770130;79;21203;-16
2021/04/09 10:49:35;;;;;;;4.67;3.60;;;;;;;22.80;23.29;100351.63;1749036;79;21232;-16
2021/04/09 10:52:14;;;;;;;5.58;3.22;;;;;;;22.65;23.57;100346.03;1788717;79;21159;-16
2021/04/09 10:54:45;;;;;;;5.35;3.22;;;;;;;22.55;24.38;100340.96;1776331;79;21168;-16
2021/04/09 10:57:16;;;;;;;5.03;3.12;;;;;;;22.51;22.87;100348.83;1743890;81;21192;-16
2021/04/09 10:59:45;;;;;;;3.40;2.80;;;;;;;22.34;24.17;100347.34;1783815;78;21350;-17
2021/04/09 11:02:25;;;;;;;6.30;3.35;;;;;;;22.34;25.40;100339.30;1732477;81;21517;-18
2021/04/09 11:04:56;;;;;;;4.15;3.17;;;;;;;22.45;25.97;100340.75;1800427;78;21157;-18
2021/04/09 11:07:45;;;;;;;5.75;2.75;;;;;;;22.58;26.32;100341.59;1786634;78;21190;-16
2021/04/09 11:10:19;;;;;;;7.15;3.20;;;;;;;22.71;26.48;100343.38;1741372;81;21204;-16
2021/04/09 11:12:47;;;;;;;5.78;2.85;;;;;;;22.86;26.73;100335.55;1723311;81;21213;-15
2021/04/09 11:15:16;;;;;;;5.03;2.62;;;;;;;22.98;26.84;100337.36;1717290;81;21240;-15
2021/04/09 11:17:56;;;;;;;4.12;2.58;;;;;;;23.10;26.98;100332.06;1788623;79;21210;-15
2021/04/09 11:20:32;;;;;;;4.37;2.47;;;;;;;23.19;26.48;100339.45;1769451;79;21615;-16
2021/04/09 11:23:11;;;;;;;2.60;2.40;;;;;;;23.26;23.45;100339.36;1752320;79;21184;-16
2021/04/09 11:25:49;;;;;;;2.85;2.45;;;;;;;23.24;21.29;100334.59;1769951;79;21474;-16
2021/04/09 11:28:26;;;;;;;3.35;2.50;;;;;;;23.18;20.84;100340.41;1682454;82;21219;-15
2021/04/09 11:31:03;;;;;;;6.62;3.05;;;;;;;23.11;21.54;100332.45;1775630;79;21125;-17
2021/04/09 11:33:38;;;;;;;4.20;3.00;;;;;;;23.07;22.76;100335.85;1769774;79;21820;-16
2021/04/09 11:36:21;;;;;;;6.20;2.77;;;;;;;23.07;23.50;100335.00;1749915;81;21656;-15
2021/04/09 11:38:53;;;;;;;6.90;3.20;;;;;;;23.04;24.70;100335.19;1781370;78;21193;-15
2021/04/09 11:41:33;;;;;;;6.00;2.90;;;;;;;23.10;25.56;100337.44;1781874;78;21220;-14
2021/04/09 11:44:03;;;;;;;6.97;3.40;;;;;;;23.18;25.88;100337.73;1697744;83;21248;-15
2021/04/09 11:46:35;;;;;;;4.42;3.17;;;;;;;23.26;26.40;100325.94;1702153;82;21277;-16
2021/04/09 11:49:07;;;;;;;9.55;3.37;;;;;;;23.32;25.08;100324.14;1717719;82;21261;-15
2021/04/09 11:51:38;;;;;;;4.95;2.98;;;;;;;23.33;26.76;100329.89;1712710;82;21177;-14
2021/04/09 11:54:17;;;;;;;9.03;3.17;;;;;;;23.40;27.89;100330.75;1714763;82;21216;-15
2021/04/09 11:56:48;;;;;;;13.85;3.10;;;;;;;23.49;28.22;100325.55;1707074;82;21201;-15
2021/04/09 11:59:20;;;;;;;11.33;2.90;;;;;;;23.60;28.13;100323.38;1721766;81;21204;-14
2021/04/09 12:01:49;;;;;;;11.45;3.25;;;;;;;23.66;28.16;100312.66;1774834;78;21176;-15
2021/04/09 12:04:36;;;;;;;8.23;3.15;;;;;;;23.72;28.38;100309.02;1758526;80;21218;-15
2021/04/09 12:07:14;;;;;;;7.60;2.73;;;;;;;23.79;28.50;100312.56;1784653;79;21675;-15
2021/04/09 12:09:43;;;;;;;6.08;2.47;;;;;;;23.82;27.87;100311.02;1774573;78;21177;-16
2021/04/09 12:12:12;;;;;;;8.63;2.70;;;;;;;23.80;25.89;100312.44;1749236;79;21468;-14
2021/04/09 12:14:47;;;;;;;5.37;2.90;;;;;;;23.68;26.78;100308.03;1753675;79;21169;-15
2021/04/09 12:17:18;;;;;;;6.92;2.80;;;;;;;23.64;27.67;100306.06;1779471;78;21612;-15
2021/04/09 12:19:51;;;;;;;6.35;2.83;;;;;;;23.64;27.64;100310.59;1753840;78;21144;-17
2021/04/09 12:22:21;;;;;;;4.08;2.35;;;;;;;23.62;27.06;100306.67;1759124;80;21161;-15
2021/04/09 12:24:48;;;;;;;4.25;2.80;;;;;;;23.61;27.59;100301.42;1783159;79;21161;-15
2021/04/09 12:27:17;;;;;;;7.92;3.30;;;;;;;23.61;28.00;100303.61;1790482;78;21188;-14
2021/04/09 12:29:47;;;;;;;8.23;3.22;;;;;;;23.61;28.20;100301.42;1763811;79;21268;-14
2021/04/09 12:32:14;;;;;;;6.75;3.47;;;;;;;23.63;28.65;100299.46;1763774;79;21197;-14
2021/04/09 12:34:42;;;;;;;10.08;3.25;;;;;;;23.66;29.19;100305.45;1778431;79;21176;-16
2021/04/09 12:37:13;;;;;;;6.58;3.00;;;;;;;23.69;29.03;100303.88;1763299;79;21219;-16
2021/04/09 12:39:41;;;;;;;8.60;3.12;;;;;;;23.76;28.19;100312.82;1768272;80;21156;-17
2021/04/09 12:42:10;;;;;;;5.40;3.08;;;;;;;23.74;26.46;100311.09;1756036;80;22241;-18
2021/04/09 12:44:37;;;;;;;8.80;3.00;;;;;;;23.69;25.65;100307.91;1735912;82;21184;-16
2021/04/09 12:47:05;;;;;;;8.25;3.08;;;;;;;23.64;24.70;100311.44;1774316;80;21200;-16
2021/04/09 12:49:33;;;;;;;5.20;2.58;;;;;;;23.58;24.19;100315.92;1737204;82;21220;-18
2021/04/09 12:52:01;;;;;;;6.72;2.40;;;;;;;23.50;23.70;100314.31;1755914;80;21626;-16
2021/04/09 12:54:28;;;;;;;2.50;2.30;;;;;;;23.43;22.64;100306.36;1774299;80;21210;-16
2021/04/09 12:56:56;;;;;;;3.75;2.40;;;;;;;23.32;21.81;100301.31;1737166;82;21684;-16
2021/04/09 12:59:23;;;;;;;2.42;2.22;;;;;;;23.22;21.86;100300.30;1774517;80;21168;-16
2021/04/09 13:01:51;;;;;;;3.22;2.72;;;;;;;23.16;22.31;100294.03;1774343;80;21168;-16
2021/04/09 13:04:20;;;;;;;3.17;2.67;;;;;;;23.13;22.19;100288.89;1773368;80;21157;-15
2021/04/09 13:06:47;;;;;;;2.80;2.50;;;;;;;23.11;22.71;100286.81;1748006;79;21193;-17
2021/04/09 13:09:15;;;;;;;6.08;2.72;;;;;;;23.10;22.63;100289.12;1756255;79;21203;-18
2021/04/09 13:11:42;;;;;;;9.73;4.62;;;;;;;23.03;22.96;100286.50;1723864;80;21219;-15
2021/04/09 13:14:13;;;;;;;4.05;2.85;;;;;;;22.97;22.92;100291.35;1762042;80;21195;-15
2021/04/09 13:16:42;;;;;;;4.70;3.08;;;;;;;22.91;23.08;100289.11;1770430;79;21164;-15
2021/04/09 13:19:15;;;;;;;4.20;2.95;;;;;;;22.87;22.78;100289.48;1739029;80;21227;-16
2021/04/09 13:21:47;;;;;;;3.52;2.70;;;;;;;22.82;22.77;100282.61;1753745;81;21172;-15
2021/04/09 13:24:19;;;;;;;6.00;2.55;;;;;;;22.77;22.47;100287.95;1755362;79;21171;-15
2021/04/09 13:26:59;;;;;;;7.70;2.67;;;;;;;22.71;23.40;100284.36;1751140;80;21176;-17
2021/04/09 13:29:30;;;;;;;5.08;2.70;;;;;;;22.68;24.32;100289.95;1721906;80;21244;-15
2021/04/09 13:32:02;;;;;;;8.25;3.10;;;;;;;22.67;24.24;100286.91;1756902;80;21317;-16
2021/04/09 13:34:36;;;;;;;4.78;2.67;;;;;;;22.62;24.81;100285.41;1747675;80;21124;-16
2021/04/09 13:37:04;;;;;;;5.78;2.77;;;;;;;22.63;26.03;100290.31;1753379;79;21240;-15
2021/04/09 13:39:35;;;;;;;10.60;2.98;;;;;;;22.67;26.67;100284.23;1787076;79;21211;-15
2021/04/09 13:42:09;;;;;;;10.05;3.35;;;;;;;22.70;26.67;100290.72;1787494;78;21188;-16
2021/04/09 13:44:41;;;;;;;5.20;3.12;;;;;;;22.73;26.96;100293.15;1778179;79;21375;-18
2021/04/09 13:47:10;;;;;;;10.72;4.62;;;;;;;22.75;27.15;100291.23;1784180;79;21244;-16
2021/04/09 13:49:39;;;;;;;7.08;3.35;;;;;;;22.76;26.11;100286.22;1745330;79;21543;-16
2021/04/09 13:52:07;;;;;;;7.47;3.22;;;;;;;22.75;24.54;100288.55;1790091;79;21636;-15
2021/04/09 13:54:38;;;;;;;10.72;3.72;;;;;;;22.72;25.12;100287.43;1777569;79;21199;-16
2021/04/09 13:57:07;;;;;;;7.35;3.42;;;;;;;22.71;25.87;100285.70;1771038;79;21391;-15
2021/04/09 13:59:34;;;;;;;5.00;3.22;;;;;;;22.78;26.51;100291.02;1770213;79;21153;-15
2021/04/09 14:02:01;;;;;;;5.87;3.05;;;;;;;22.86;26.96;100285.91;1777793;79;21173;-15
2021/04/09 14:04:29;;;;;;;5.87;3.00;;;;;;;22.95;27.26;100283.91;1781142;79;21169;-15
2021/04/09 14:06:57;;;;;;;5.15;2.90;;;;;;;23.05;27.48;100288.58;1784501;79;21220;-15
2021/04/09 14:09:25;;;;;;;6.85;3.02;;;;;;;23.14;27.67;100287.44;1776659;79;21216;-20
2021/04/09 14:11:52;;;;;;;6.78;2.72;;;;;;;23.24;27.83;100285.42;1743082;79;21190;-15
2021/04/09 14:14:20;;;;;;;8.83;3.08;;;;;;;23.32;27.92;100281.17;1785892;79;21186;-15
2021/04/09 14:16:50;;;;;;;5.87;2.98;;;;;;;23.44;28.07;100283.91;1770546;79;21181;-15
2021/04/09 14:19:18;;;;;;;4.83;2.95;;;;;;;23.52;28.25;100278.81;1765298;79;21513;-15
2021/04/09 14:21:46;;;;;;;6.05;2.33;;;;;;;23.59;28.31;100282.73;1800918;79;21185;-15
2021/04/09 14:24:13;;;;;;;5.45;2.70;;;;;;;23.67;28.41;100283.00;1780380;79;21165;-17
2021/04/09 14:26:43;;;;;;;5.70;2.75;;;;;;;23.77;28.48;100276.89;1791639;79;21224;-15
2021/04/09 14:29:11;;;;;;;8.23;2.87;;;;;;;23.84;28.53;100276.81;1759507;79;21152;-14
2021/04/09 14:31:42;;;;;;;5.25;2.45;;;;;;;23.89;28.56;100275.49;1772782;79;21134;-15
2021/04/09 14:34:10;;;;;;;4.92;2.55;;;;;;;23.96;28.68;100271.84;1772090;78;21204;-15
2021/04/09 14:36:38;;;;;;;6.58;3.08;;;;;;;24.01;28.75;100271.48;1770536;78;21181;-16
2021/04/09 14:39:06;;;;;;;4.15;2.47;;;;;;;24.06;28.77;100275.50;1765305;79;21180;-18
2021/04/09 14:41:35;;;;;;;8.08;2.52;;;;;;;24.12;28.85;100276.84;1785798;79;21220;-16
2021/04/09 14:44:03;;;;;;;3.42;2.17;;;;;;;24.15;28.94;100271.23;1786298;77;21140;-16
2021/04/09 14:46:32;;;;;;;5.72;2.45;;;;;;;24.19;28.99;100280.78;1799861;77;21269;-16
2021/04/09 14:49:01;;;;;;;5.75;2.75;;;;;;;24.24;29.04;100281.73;1786906;77;21188;-16
2021/04/09 14:51:29;;;;;;;5.17;2.58;;;;;;;24.28;29.13;100277.84;1808349;77;21173;-16
2021/04/09 14:53:58;;;;;;;6.33;2.55;;;;;;;24.30;29.17;100271.84;1777806;79;21222;-16
2021/04/09 14:56:28;;;;;;;12.78;2.70;;;;;;;24.33;29.24;100272.09;1784449;79;21161;-16
2021/04/09 14:58:57;;;;;;;7.83;2.50;;;;;;;24.38;29.30;100273.92;1778295;79;21935;-17
2021/04/09 15:01:25;;;;;;;4.03;2.40;;;;;;;24.39;29.35;100275.12;1747073;79;21189;-16
2021/04/09 15:03:53;;;;;;;4.05;2.40;;;;;;;24.41;29.41;100273.19;1773559;79;21580;-17
2021/04/09 15:06:21;;;;;;;3.42;2.42;;;;;;;24.44;29.47;100276.09;1751927;79;21168;-16
2021/04/09 15:08:49;;;;;;;6.20;2.90;;;;;;;24.46;29.54;100277.70;1775157;79;21156;-16
2021/04/09 15:11:18;;;;;;;3.08;2.20;;;;;;;24.50;29.58;100272.08;1758721;79;21251;-16
2021/04/09 15:13:46;;;;;;;4.95;2.60;;;;;;;24.51;29.63;100264.35;1795303;79;21137;-15
2021/04/09 15:16:13;;;;;;;9.53;4.60;;;;;;;24.53;29.65;100269.11;1789288;78;21165;-16
2021/04/09 15:18:42;;;;;;;9.88;4.37;;;;;;;24.49;27.57;100269.86;1788125;79;21221;-17
2021/04/09 15:21:11;;;;;;;8.55;3.25;;;;;;;24.42;27.53;100273.53;1784646;78;21781;-16
2021/04/09 15:23:40;;;;;;;9.63;3.62;;;;;;;24.35;27.94;100269.63;1778924;79;21203;-16